createdAt,value
2019-06-13T06:25:21.315Z,2560
2019-06-13T06:26:14.545Z,2620
2019-06-13T06:27:14.934Z,2604
2019-06-13T06:28:14.640Z,2536
2019-06-13T06:29:14.476Z,2464
2019-06-13T06:30:21.778Z,2372
2019-06-13T06:31:15.042Z,2288
2019-06-13T06:32:13.699Z,2232
2019-06-13T06:33:16.124Z,2196
2019-06-13T06:34:15.046Z,2160
2019-06-13T06:35:15.699Z,2124
2019-06-13T06:36:14.452Z,2108
2019-06-13T06:37:16.463Z,2096
2019-06-13T06:38:14.889Z,2084
2019-06-13T06:39:19.406Z,2096
2019-06-13T06:40:14.346Z,2152
2019-06-13T06:41:14.519Z,2276
2019-06-13T06:42:14.618Z,2420
2019-06-13T06:43:14.974Z,2472
2019-06-13T06:44:19.358Z,2428
2019-06-13T06:45:15.159Z,2376
2019-06-13T06:46:19.424Z,2304
2019-06-13T06:47:16.206Z,2228
2019-06-13T06:48:16.870Z,2192
2019-06-13T06:49:15.726Z,2256
2019-06-13T06:50:15.405Z,2440
2019-06-13T06:51:19.794Z,2724
2019-06-13T06:52:15.415Z,3040
2019-06-13T06:53:19.902Z,3396
2019-06-13T06:54:15.769Z,3672
2019-06-13T06:55:19.500Z,4064
2019-06-13T06:56:15.040Z,4600
2019-06-13T06:57:16.796Z,5396
2019-06-13T06:58:17.219Z,6164
2019-06-13T06:59:15.043Z,6640
2019-06-13T07:00:16.158Z,6980
2019-06-13T07:01:19.677Z,6676
2019-06-13T07:02:19.647Z,6388
2019-06-13T07:03:20.755Z,5656
2019-06-13T07:04:21.400Z,4772
2019-06-13T07:05:19.124Z,3972
2019-06-13T07:06:19.635Z,3344
2019-06-13T07:07:16.670Z,2880
2019-06-13T07:08:19.499Z,2568
2019-06-13T07:09:20.105Z,2392
2019-06-13T07:10:26.118Z,2280
2019-06-13T07:11:19.140Z,2204
2019-06-13T07:12:16.772Z,2144
2019-06-13T07:13:19.333Z,2124
2019-06-13T07:14:32.919Z,2172
2019-06-13T07:15:19.563Z,2208
2019-06-13T07:16:20.224Z,2252
2019-06-13T07:17:20.043Z,2276
2019-06-13T07:18:16.761Z,2300
2019-06-13T07:19:16.403Z,2320
2019-06-13T07:20:19.610Z,2364
2019-06-13T07:21:19.987Z,2456
2019-06-13T07:22:20.238Z,2576
2019-06-13T07:23:19.768Z,2636
2019-06-13T07:24:19.871Z,2616
2019-06-13T07:25:16.978Z,2552
2019-06-13T07:26:19.275Z,2484
2019-06-13T07:27:19.717Z,2476
2019-06-13T07:28:19.950Z,2520
2019-06-13T07:29:17.032Z,2600
2019-06-13T07:30:22.709Z,2660
2019-06-13T07:31:19.307Z,2712
2019-06-13T07:32:20.942Z,2780
2019-06-13T07:33:16.759Z,2848
2019-06-13T07:34:20.267Z,2960
2019-06-13T07:35:17.165Z,3104
2019-06-13T07:36:19.860Z,3268
2019-06-13T07:37:17.204Z,3428
2019-06-13T07:38:16.463Z,3568
2019-06-13T07:39:19.961Z,3724
2019-06-13T07:40:39.705Z,3972
2019-06-13T07:41:19.112Z,4060
2019-06-13T07:42:16.750Z,4108
2019-06-13T07:43:16.776Z,4076
2019-06-13T07:44:22.484Z,3956
2019-06-13T07:45:19.707Z,3896
2019-06-13T07:46:19.428Z,3908
2019-06-13T07:47:20.467Z,4040
2019-06-13T07:48:22.421Z,4220
2019-06-13T07:49:19.322Z,4328
2019-06-13T07:50:21.397Z,4448
2019-06-13T07:51:19.871Z,4676
2019-06-13T07:52:20.286Z,5060
2019-06-13T07:53:19.666Z,5464
2019-06-13T07:54:19.025Z,5788
2019-06-13T07:55:20.875Z,6336
2019-06-13T07:56:16.961Z,7152
2019-06-13T07:57:16.601Z,8188
2019-06-13T07:58:21.316Z,9432
2019-06-13T07:59:16.949Z,10652
2019-06-13T08:00:16.748Z,13076
2019-06-13T08:01:21.014Z,14824
2019-06-13T08:02:19.921Z,16384
2019-06-13T08:03:19.442Z,20256
2019-06-13T08:04:19.950Z,27680
2019-06-13T08:05:20.059Z,24864
2019-06-13T08:06:42.432Z,24896
2019-06-13T08:07:16.913Z,34048
2019-06-13T08:08:19.312Z,32224
2019-06-13T08:09:20.385Z,27840
2019-06-13T08:10:28.114Z,35456
2019-06-13T08:11:19.546Z,55872
2019-06-13T08:12:19.333Z,98240
2019-06-13T08:13:20.938Z,90432
2019-06-13T08:14:19.384Z,85952
2019-06-13T08:15:20.324Z,86272
2019-06-13T08:16:41.664Z,91584
2019-06-13T08:17:20.359Z,93792
2019-06-13T08:18:19.169Z,95968
2019-06-13T08:19:17.258Z,95840
2019-06-13T08:20:19.256Z,93824
2019-06-13T08:21:20.638Z,89472
2019-06-13T08:22:19.660Z,84544
2019-06-13T08:23:29.582Z,82016
2019-06-13T08:24:19.905Z,82528
2019-06-13T08:25:20.264Z,84576
2019-06-13T08:26:25.995Z,86336
2019-06-13T08:27:19.145Z,86112
2019-06-13T08:28:21.199Z,84800
2019-06-13T08:29:19.413Z,81408
2019-06-13T08:30:19.834Z,76128
2019-06-13T08:31:20.245Z,72640
2019-06-13T08:32:20.086Z,71904
2019-06-13T08:33:20.358Z,72768
2019-06-13T08:34:20.185Z,74752
2019-06-13T08:35:19.843Z,75520
2019-06-13T08:36:19.785Z,75072
2019-06-13T08:37:22.645Z,71616
2019-06-13T08:38:20.458Z,72864
2019-06-13T08:39:19.695Z,73792
2019-06-13T08:40:19.903Z,74624
2019-06-13T08:41:32.010Z,75264
2019-06-13T08:42:19.575Z,77120
2019-06-13T08:43:25.362Z,80352
2019-06-13T08:44:20.109Z,81536
2019-06-13T08:45:19.859Z,82464
2019-06-13T08:46:20.395Z,82368
2019-06-13T08:47:19.878Z,83904
2019-06-13T08:48:20.007Z,84416
2019-06-13T08:49:25.596Z,82368
2019-06-13T08:50:21.352Z,80448
2019-06-13T08:51:22.041Z,78656
2019-06-13T08:52:19.613Z,68928
2019-06-13T08:53:21.862Z,67008
2019-06-13T08:54:20.200Z,86112
2019-06-13T08:55:21.708Z,33376
2019-06-13T08:56:20.944Z,84544
2019-06-13T08:57:21.798Z,87936
2019-06-13T08:58:21.174Z,86016
2019-06-13T08:59:22.156Z,95488
2019-06-13T09:00:22.144Z,88608
2019-06-13T09:01:22.781Z,56352
2019-06-13T09:02:22.367Z,81920
2019-06-13T09:03:22.056Z,78688
2019-06-13T09:04:22.399Z,77824
2019-06-13T09:05:23.215Z,80416
2019-06-13T09:06:32.534Z,82752
2019-06-13T09:07:21.941Z,84320
2019-06-13T09:08:34.351Z,86176
2019-06-13T09:09:22.281Z,87488
2019-06-13T09:10:22.115Z,87360
2019-06-13T09:11:49.241Z,81952
2019-06-13T09:12:21.670Z,80384
2019-06-13T09:13:22.353Z,77024
2019-06-13T09:14:22.751Z,77600
2019-06-13T09:15:21.941Z,79680
2019-06-13T09:16:21.686Z,81536
2019-06-13T09:17:22.894Z,82912
2019-06-13T09:18:22.279Z,82784
2019-06-13T09:19:21.687Z,19168
2019-06-13T09:20:23.819Z,16256
2019-06-13T09:21:23.250Z,20128
2019-06-13T09:22:23.350Z,23968
2019-06-13T09:23:23.028Z,27520
2019-06-13T09:24:23.911Z,65408
2019-06-13T09:25:23.920Z,80960
2019-06-13T09:26:21.862Z,82752
2019-06-13T09:27:22.376Z,50208
2019-06-13T09:28:22.698Z,53312
2019-06-13T09:29:22.032Z,86304
2019-06-13T09:30:22.836Z,89280
2019-06-13T09:31:22.436Z,89696
2019-06-13T09:32:24.728Z,87328
2019-06-13T09:33:33.736Z,89120
2019-06-13T09:34:23.973Z,90944
2019-06-13T09:35:24.265Z,89376
2019-06-13T09:36:24.971Z,87648
2019-06-13T09:37:22.842Z,84896
2019-06-13T09:38:23.900Z,88096
2019-06-13T09:39:36.134Z,89888
2019-06-13T09:40:24.705Z,88256
2019-06-13T09:41:26.459Z,59328
2019-06-13T09:42:40.197Z,41792
2019-06-13T09:43:29.844Z,74848
2019-06-13T09:44:31.787Z,69440
2019-06-13T09:45:34.079Z,85792
2019-06-13T09:46:30.263Z,92096
2019-06-13T09:47:31.408Z,96384
2019-06-13T09:48:30.016Z,95168
2019-06-13T09:49:30.722Z,91968
